sensor_id;sensor_type;location;lat;lon;timestamp;temperature;humidity
5334;DHT22;2689;50.954;7.116;2023-12-20T00:01:45;8.20;99.90
5334;DHT22;2689;50.954;7.116;2023-12-20T00:04:12;8.20;99.90
5334;DHT22;2689;50.954;7.116;2023-12-20T00:06:38;8.30;99.90
5334;DHT22;2689;50.954;7.116;2023-12-20T00:09:05;8.30;99.90
5334;DHT22;2689;50.954;7.116;2023-12-20T00:11:32;8.30;99.90
5334;DHT22;2689;50.954;7.116;2023-12-20T00:13:58;8.20;99.90
5334;DHT22;2689;50.954;7.116;2023-12-20T00:16:25;8.20;99.90
5334;DHT22;2689;50.954;7.116;2023-12-20T00:18:53;8.30;99.90
5334;DHT22;2689;50.954;7.116;2023-12-20T00:21:22;8.30;99.90
5334;DHT22;2689;50.954;7.116;2023-12-20T00:23:49;8.30;99.90
5334;DHT22;2689;50.954;7.116;2023-12-20T00:26:16;8.20;99.90
5334;DHT22;2689;50.954;7.116;2023-12-20T00:28:42;8.20;99.90
5334;DHT22;2689;50.954;7.116;2023-12-20T00:31:09;8.30;99.90
5334;DHT22;2689;50.954;7.116;2023-12-20T00:33:36;8.20;99.90
5334;DHT22;2689;50.954;7.116;2023-12-20T00:36:04;8.20;99.90
5334;DHT22;2689;50.954;7.116;2023-12-20T00:38:34;8.20;99.90
5334;DHT22;2689;50.954;7.116;2023-12-20T00:41:00;8.30;99.90
5334;DHT22;2689;50.954;7.116;2023-12-20T00:43:27;8.20;99.90
5334;DHT22;2689;50.954;7.116;2023-12-20T00:45:54;8.30;99.90
5334;DHT22;2689;50.954;7.116;2023-12-20T00:48:21;8.20;99.90
5334;DHT22;2689;50.954;7.116;2023-12-20T00:50:48;8.30;99.90
5334;DHT22;2689;50.954;7.116;2023-12-20T00:53:19;8.20;99.90
5334;DHT22;2689;50.954;7.116;2023-12-20T00:55:48;8.20;99.90
5334;DHT22;2689;50.954;7.116;2023-12-20T00:58:15;8.20;99.90
5334;DHT22;2689;50.954;7.116;2023-12-20T01:00:45;8.20;99.90
5334;DHT22;2689;50.954;7.116;2023-12-20T01:03:12;8.20;99.90
5334;DHT22;2689;50.954;7.116;2023-12-20T01:05:40;8.20;99.90
5334;DHT22;2689;50.954;7.116;2023-12-20T01:08:06;8.10;99.90
5334;DHT22;2689;50.954;7.116;2023-12-20T01:10:34;8.10;99.90
5334;DHT22;2689;50.954;7.116;2023-12-20T01:13:01;8.10;99.90
5334;DHT22;2689;50.954;7.116;2023-12-20T01:15:28;8.10;99.90
5334;DHT22;2689;50.954;7.116;2023-12-20T01:17:54;8.10;99.90
5334;DHT22;2689;50.954;7.116;2023-12-20T01:20:22;8.10;99.90
5334;DHT22;2689;50.954;7.116;2023-12-20T01:22:49;8.10;99.90
5334;DHT22;2689;50.954;7.116;2023-12-20T01:25:18;8.00;99.90
5334;DHT22;2689;50.954;7.116;2023-12-20T01:27:46;8.00;99.90
5334;DHT22;2689;50.954;7.116;2023-12-20T01:30:13;7.90;99.90
5334;DHT22;2689;50.954;7.116;2023-12-20T01:32:40;7.90;99.90
5334;DHT22;2689;50.954;7.116;2023-12-20T01:35:07;7.80;99.90
5334;DHT22;2689;50.954;7.116;2023-12-20T01:37:34;7.80;99.90
5334;DHT22;2689;50.954;7.116;2023-12-20T01:40:01;7.80;99.90
5334;DHT22;2689;50.954;7.116;2023-12-20T01:42:27;7.70;99.90
5334;DHT22;2689;50.954;7.116;2023-12-20T01:44:56;7.70;99.90
5334;DHT22;2689;50.954;7.116;2023-12-20T01:47:23;7.70;99.90
5334;DHT22;2689;50.954;7.116;2023-12-20T01:49:50;7.70;99.90
5334;DHT22;2689;50.954;7.116;2023-12-20T01:52:17;7.70;99.90
5334;DHT22;2689;50.954;7.116;2023-12-20T01:54:44;7.70;99.90
5334;DHT22;2689;50.954;7.116;2023-12-20T01:57:11;7.80;99.90
5334;DHT22;2689;50.954;7.116;2023-12-20T01:59:39;7.70;99.90
5334;DHT22;2689;50.954;7.116;2023-12-20T02:02:08;7.70;99.90
5334;DHT22;2689;50.954;7.116;2023-12-20T02:04:37;7.70;99.90
5334;DHT22;2689;50.954;7.116;2023-12-20T02:07:04;7.70;99.90
5334;DHT22;2689;50.954;7.116;2023-12-20T02:09:32;7.60;99.90
5334;DHT22;2689;50.954;7.116;2023-12-20T02:11:59;7.60;99.90
5334;DHT22;2689;50.954;7.116;2023-12-20T02:14:26;7.50;99.90
5334;DHT22;2689;50.954;7.116;2023-12-20T02:16:55;7.50;99.90
5334;DHT22;2689;50.954;7.116;2023-12-20T02:19:23;7.50;99.90
5334;DHT22;2689;50.954;7.116;2023-12-20T02:22:05;7.40;99.90
5334;DHT22;2689;50.954;7.116;2023-12-20T02:24:33;7.40;99.90
5334;DHT22;2689;50.954;7.116;2023-12-20T02:27:00;7.30;99.90
5334;DHT22;2689;50.954;7.116;2023-12-20T02:29:27;7.30;99.90
5334;DHT22;2689;50.954;7.116;2023-12-20T02:31:54;7.20;99.90
5334;DHT22;2689;50.954;7.116;2023-12-20T02:34:20;7.10;99.90
5334;DHT22;2689;50.954;7.116;2023-12-20T02:36:47;7.10;99.90
5334;DHT22;2689;50.954;7.116;2023-12-20T02:39:16;7.00;99.90
5334;DHT22;2689;50.954;7.116;2023-12-20T02:41:43;6.90;99.90
5334;DHT22;2689;50.954;7.116;2023-12-20T02:44:09;6.90;99.90
5334;DHT22;2689;50.954;7.116;2023-12-20T02:46:36;6.80;99.90
5334;DHT22;2689;50.954;7.116;2023-12-20T02:49:03;6.70;99.90
5334;DHT22;2689;50.954;7.116;2023-12-20T02:51:29;6.70;99.90
5334;DHT22;2689;50.954;7.116;2023-12-20T02:53:56;6.70;99.90
5334;DHT22;2689;50.954;7.116;2023-12-20T02:56:24;6.60;99.90
5334;DHT22;2689;50.954;7.116;2023-12-20T02:58:51;6.60;99.90
5334;DHT22;2689;50.954;7.116;2023-12-20T03:01:17;6.60;99.90
5334;DHT22;2689;50.954;7.116;2023-12-20T03:03:45;6.60;99.90
5334;DHT22;2689;50.954;7.116;2023-12-20T03:06:19;6.60;99.90
5334;DHT22;2689;50.954;7.116;2023-12-20T03:08:46;6.60;99.90
5334;DHT22;2689;50.954;7.116;2023-12-20T03:11:13;6.60;99.90
5334;DHT22;2689;50.954;7.116;2023-12-20T03:13:41;6.60;99.90
5334;DHT22;2689;50.954;7.116;2023-12-20T03:16:11;6.60;99.90
5334;DHT22;2689;50.954;7.116;2023-12-20T03:18:37;6.60;99.90
5334;DHT22;2689;50.954;7.116;2023-12-20T03:21:04;6.60;99.90
5334;DHT22;2689;50.954;7.116;2023-12-20T03:23:31;6.60;99.90
5334;DHT22;2689;50.954;7.116;2023-12-20T03:25:59;6.60;99.90
5334;DHT22;2689;50.954;7.116;2023-12-20T03:28:26;6.60;99.90
5334;DHT22;2689;50.954;7.116;2023-12-20T03:30:54;6.60;99.90
5334;DHT22;2689;50.954;7.116;2023-12-20T03:33:21;6.60;99.90
5334;DHT22;2689;50.954;7.116;2023-12-20T03:35:48;6.60;99.90
5334;DHT22;2689;50.954;7.116;2023-12-20T03:38:14;6.60;99.90
5334;DHT22;2689;50.954;7.116;2023-12-20T03:40:41;6.60;99.90
5334;DHT22;2689;50.954;7.116;2023-12-20T03:43:08;6.60;99.90
5334;DHT22;2689;50.954;7.116;2023-12-20T03:45:34;6.60;99.90
5334;DHT22;2689;50.954;7.116;2023-12-20T03:48:03;6.60;99.90
5334;DHT22;2689;50.954;7.116;2023-12-20T03:50:30;6.60;99.90
5334;DHT22;2689;50.954;7.116;2023-12-20T03:52:57;6.60;99.90
5334;DHT22;2689;50.954;7.116;2023-12-20T03:55:25;6.60;99.90
5334;DHT22;2689;50.954;7.116;2023-12-20T03:57:52;6.60;99.90
5334;DHT22;2689;50.954;7.116;2023-12-20T04:00:19;6.60;99.90
5334;DHT22;2689;50.954;7.116;2023-12-20T04:02:46;6.60;99.90
5334;DHT22;2689;50.954;7.116;2023-12-20T04:05:15;6.60;99.90
5334;DHT22;2689;50.954;7.116;2023-12-20T04:07:44;6.60;99.90
5334;DHT22;2689;50.954;7.116;2023-12-20T04:10:10;6.60;99.90
5334;DHT22;2689;50.954;7.116;2023-12-20T04:12:37;6.60;99.90
5334;DHT22;2689;50.954;7.116;2023-12-20T04:15:05;6.60;99.90
5334;DHT22;2689;50.954;7.116;2023-12-20T04:17:34;6.60;99.90
5334;DHT22;2689;50.954;7.116;2023-12-20T04:20:14;6.60;99.90
5334;DHT22;2689;50.954;7.116;2023-12-20T04:22:41;6.60;99.90
5334;DHT22;2689;50.954;7.116;2023-12-20T04:25:08;6.60;99.90
5334;DHT22;2689;50.954;7.116;2023-12-20T04:27:35;6.60;99.90
5334;DHT22;2689;50.954;7.116;2023-12-20T04:30:02;6.60;99.90
5334;DHT22;2689;50.954;7.116;2023-12-20T04:32:29;6.60;99.90
5334;DHT22;2689;50.954;7.116;2023-12-20T04:34:57;6.70;99.90
5334;DHT22;2689;50.954;7.116;2023-12-20T04:37:25;6.60;99.90
5334;DHT22;2689;50.954;7.116;2023-12-20T04:39:52;6.60;99.90
5334;DHT22;2689;50.954;7.116;2023-12-20T04:42:21;6.60;99.90
5334;DHT22;2689;50.954;7.116;2023-12-20T04:44:48;6.60;99.90
5334;DHT22;2689;50.954;7.116;2023-12-20T04:47:15;6.70;99.90
5334;DHT22;2689;50.954;7.116;2023-12-20T04:49:42;6.60;99.90
5334;DHT22;2689;50.954;7.116;2023-12-20T04:52:08;6.60;99.90
5334;DHT22;2689;50.954;7.116;2023-12-20T04:54:36;6.70;99.90
5334;DHT22;2689;50.954;7.116;2023-12-20T04:57:03;6.60;99.90
5334;DHT22;2689;50.954;7.116;2023-12-20T04:59:30;6.60;99.90
5334;DHT22;2689;50.954;7.116;2023-12-20T05:01:57;6.60;99.90
5334;DHT22;2689;50.954;7.116;2023-12-20T05:04:24;6.60;99.90
5334;DHT22;2689;50.954;7.116;2023-12-20T05:06:50;6.60;99.90
5334;DHT22;2689;50.954;7.116;2023-12-20T05:09:17;6.50;99.90
5334;DHT22;2689;50.954;7.116;2023-12-20T05:11:45;6.50;99.90
5334;DHT22;2689;50.954;7.116;2023-12-20T05:14:12;6.50;99.90
5334;DHT22;2689;50.954;7.116;2023-12-20T05:16:38;6.50;99.90
5334;DHT22;2689;50.954;7.116;2023-12-20T05:19:05;6.50;99.90
5334;DHT22;2689;50.954;7.116;2023-12-20T05:21:32;6.50;99.90
5334;DHT22;2689;50.954;7.116;2023-12-20T05:23:59;6.60;99.90
5334;DHT22;2689;50.954;7.116;2023-12-20T05:26:26;6.60;99.90
5334;DHT22;2689;50.954;7.116;2023-12-20T05:28:56;6.50;99.90
5334;DHT22;2689;50.954;7.116;2023-12-20T05:31:23;6.50;99.90
5334;DHT22;2689;50.954;7.116;2023-12-20T05:33:48;6.50;99.90
5334;DHT22;2689;50.954;7.116;2023-12-20T05:36:15;6.50;99.90
5334;DHT22;2689;50.954;7.116;2023-12-20T05:38:42;6.50;99.90
5334;DHT22;2689;50.954;7.116;2023-12-20T05:41:09;6.50;99.90
5334;DHT22;2689;50.954;7.116;2023-12-20T05:43:36;6.50;99.90
5334;DHT22;2689;50.954;7.116;2023-12-20T05:46:04;6.50;99.90
5334;DHT22;2689;50.954;7.116;2023-12-20T05:48:30;6.50;99.90
5334;DHT22;2689;50.954;7.116;2023-12-20T05:50:57;6.50;99.90
5334;DHT22;2689;50.954;7.116;2023-12-20T05:53:24;6.50;99.90
5334;DHT22;2689;50.954;7.116;2023-12-20T05:55:51;6.50;99.90
5334;DHT22;2689;50.954;7.116;2023-12-20T05:58:17;6.50;99.90
5334;DHT22;2689;50.954;7.116;2023-12-20T06:00:44;6.50;99.90
5334;DHT22;2689;50.954;7.116;2023-12-20T06:03:12;6.40;99.90
5334;DHT22;2689;50.954;7.116;2023-12-20T06:05:39;6.40;99.90
5334;DHT22;2689;50.954;7.116;2023-12-20T06:08:06;6.40;99.90
5334;DHT22;2689;50.954;7.116;2023-12-20T06:10:34;6.40;99.90
5334;DHT22;2689;50.954;7.116;2023-12-20T06:13:01;6.40;99.90
5334;DHT22;2689;50.954;7.116;2023-12-20T06:15:29;6.40;99.90
5334;DHT22;2689;50.954;7.116;2023-12-20T06:17:56;6.40;99.90
5334;DHT22;2689;50.954;7.116;2023-12-20T06:20:28;6.40;99.90
5334;DHT22;2689;50.954;7.116;2023-12-20T06:22:54;6.40;99.90
5334;DHT22;2689;50.954;7.116;2023-12-20T06:25:21;6.40;99.90
5334;DHT22;2689;50.954;7.116;2023-12-20T06:27:48;6.40;99.90
5334;DHT22;2689;50.954;7.116;2023-12-20T06:30:15;6.40;99.90
5334;DHT22;2689;50.954;7.116;2023-12-20T06:32:42;6.40;99.90
5334;DHT22;2689;50.954;7.116;2023-12-20T06:35:09;6.40;99.90
5334;DHT22;2689;50.954;7.116;2023-12-20T06:37:37;6.40;99.90
5334;DHT22;2689;50.954;7.116;2023-12-20T06:40:09;6.40;99.90
5334;DHT22;2689;50.954;7.116;2023-12-20T06:42:37;6.40;99.90
5334;DHT22;2689;50.954;7.116;2023-12-20T06:45:04;6.50;99.90
5334;DHT22;2689;50.954;7.116;2023-12-20T06:47:32;6.50;99.90
5334;DHT22;2689;50.954;7.116;2023-12-20T06:49:59;6.50;99.90
5334;DHT22;2689;50.954;7.116;2023-12-20T06:52:26;6.60;99.90
5334;DHT22;2689;50.954;7.116;2023-12-20T06:54:54;6.50;99.90
5334;DHT22;2689;50.954;7.116;2023-12-20T06:57:20;6.50;99.90
5334;DHT22;2689;50.954;7.116;2023-12-20T06:59:47;6.60;99.90
5334;DHT22;2689;50.954;7.116;2023-12-20T07:02:14;6.60;99.90
5334;DHT22;2689;50.954;7.116;2023-12-20T07:04:53;6.60;99.90
5334;DHT22;2689;50.954;7.116;2023-12-20T07:07:20;6.60;99.90
5334;DHT22;2689;50.954;7.116;2023-12-20T07:09:49;6.60;99.90
5334;DHT22;2689;50.954;7.116;2023-12-20T07:12:17;6.60;99.90
5334;DHT22;2689;50.954;7.116;2023-12-20T07:14:46;6.60;99.90
5334;DHT22;2689;50.954;7.116;2023-12-20T07:17:13;6.60;99.90
5334;DHT22;2689;50.954;7.116;2023-12-20T07:19:40;6.70;99.90
5334;DHT22;2689;50.954;7.116;2023-12-20T07:22:08;6.70;99.90
5334;DHT22;2689;50.954;7.116;2023-12-20T07:24:35;6.70;99.90
5334;DHT22;2689;50.954;7.116;2023-12-20T07:27:02;6.70;99.90
5334;DHT22;2689;50.954;7.116;2023-12-20T07:29:30;6.70;99.90
5334;DHT22;2689;50.954;7.116;2023-12-20T07:31:57;6.70;99.90
5334;DHT22;2689;50.954;7.116;2023-12-20T07:34:24;6.70;99.90
5334;DHT22;2689;50.954;7.116;2023-12-20T07:36:50;6.70;99.90
5334;DHT22;2689;50.954;7.116;2023-12-20T07:39:17;6.70;99.90
5334;DHT22;2689;50.954;7.116;2023-12-20T07:41:44;6.70;99.90
5334;DHT22;2689;50.954;7.116;2023-12-20T07:44:11;6.70;99.90
5334;DHT22;2689;50.954;7.116;2023-12-20T07:46:40;6.70;99.90
5334;DHT22;2689;50.954;7.116;2023-12-20T07:49:07;6.80;99.90
5334;DHT22;2689;50.954;7.116;2023-12-20T07:51:34;6.70;99.90
5334;DHT22;2689;50.954;7.116;2023-12-20T07:54:00;6.70;99.90
5334;DHT22;2689;50.954;7.116;2023-12-20T07:56:29;6.70;99.90
5334;DHT22;2689;50.954;7.116;2023-12-20T07:58:55;6.80;99.90
5334;DHT22;2689;50.954;7.116;2023-12-20T08:01:22;6.80;99.90
5334;DHT22;2689;50.954;7.116;2023-12-20T08:03:51;6.80;99.90
5334;DHT22;2689;50.954;7.116;2023-12-20T08:06:17;6.80;99.90
5334;DHT22;2689;50.954;7.116;2023-12-20T08:08:44;6.80;99.90
5334;DHT22;2689;50.954;7.116;2023-12-20T08:11:11;6.80;99.90
5334;DHT22;2689;50.954;7.116;2023-12-20T08:13:38;6.90;99.90
5334;DHT22;2689;50.954;7.116;2023-12-20T08:16:12;6.90;99.90
5334;DHT22;2689;50.954;7.116;2023-12-20T08:18:41;6.90;99.90
5334;DHT22;2689;50.954;7.116;2023-12-20T08:21:09;6.90;99.90
5334;DHT22;2689;50.954;7.116;2023-12-20T08:23:37;6.90;99.90
5334;DHT22;2689;50.954;7.116;2023-12-20T08:26:04;6.90;99.90
5334;DHT22;2689;50.954;7.116;2023-12-20T08:28:31;6.90;99.90
5334;DHT22;2689;50.954;7.116;2023-12-20T08:31:08;7.00;99.90
5334;DHT22;2689;50.954;7.116;2023-12-20T08:33:40;7.00;99.90
5334;DHT22;2689;50.954;7.116;2023-12-20T08:36:08;7.00;99.90
5334;DHT22;2689;50.954;7.116;2023-12-20T08:38:35;7.00;99.90
5334;DHT22;2689;50.954;7.116;2023-12-20T08:41:02;7.00;99.90
5334;DHT22;2689;50.954;7.116;2023-12-20T08:43:32;7.10;99.90
5334;DHT22;2689;50.954;7.116;2023-12-20T08:46:00;7.10;99.90
5334;DHT22;2689;50.954;7.116;2023-12-20T08:48:27;7.00;99.90
5334;DHT22;2689;50.954;7.116;2023-12-20T08:50:57;7.10;99.90
5334;DHT22;2689;50.954;7.116;2023-12-20T08:53:28;7.00;99.90
5334;DHT22;2689;50.954;7.116;2023-12-20T08:55:55;7.00;99.90
5334;DHT22;2689;50.954;7.116;2023-12-20T08:58:26;7.10;99.90
5334;DHT22;2689;50.954;7.116;2023-12-20T09:00:53;7.20;99.90
5334;DHT22;2689;50.954;7.116;2023-12-20T09:03:20;7.20;99.90
5334;DHT22;2689;50.954;7.116;2023-12-20T09:05:46;7.20;99.90
5334;DHT22;2689;50.954;7.116;2023-12-20T09:08:13;7.20;99.90
5334;DHT22;2689;50.954;7.116;2023-12-20T09:10:41;7.20;99.90
5334;DHT22;2689;50.954;7.116;2023-12-20T09:13:09;7.30;99.90
5334;DHT22;2689;50.954;7.116;2023-12-20T09:15:37;7.20;99.90
5334;DHT22;2689;50.954;7.116;2023-12-20T09:18:05;7.30;99.90
5334;DHT22;2689;50.954;7.116;2023-12-20T09:20:33;7.30;99.90
5334;DHT22;2689;50.954;7.116;2023-12-20T09:22:59;7.30;99.90
5334;DHT22;2689;50.954;7.116;2023-12-20T09:25:26;7.30;99.90
5334;DHT22;2689;50.954;7.116;2023-12-20T09:27:55;7.40;99.90
5334;DHT22;2689;50.954;7.116;2023-12-20T09:30:22;7.40;99.90
5334;DHT22;2689;50.954;7.116;2023-12-20T09:32:48;7.40;99.90
5334;DHT22;2689;50.954;7.116;2023-12-20T09:35:16;7.40;99.90
5334;DHT22;2689;50.954;7.116;2023-12-20T09:37:45;7.40;99.90
5334;DHT22;2689;50.954;7.116;2023-12-20T09:40:13;7.50;99.90
5334;DHT22;2689;50.954;7.116;2023-12-20T09:42:46;7.50;99.90
5334;DHT22;2689;50.954;7.116;2023-12-20T09:45:20;7.50;99.90
5334;DHT22;2689;50.954;7.116;2023-12-20T09:47:47;7.50;99.90
5334;DHT22;2689;50.954;7.116;2023-12-20T09:50:16;7.50;99.90
5334;DHT22;2689;50.954;7.116;2023-12-20T09:52:44;7.60;99.90
5334;DHT22;2689;50.954;7.116;2023-12-20T09:55:12;7.60;99.90
5334;DHT22;2689;50.954;7.116;2023-12-20T09:57:40;7.60;99.90
5334;DHT22;2689;50.954;7.116;2023-12-20T10:00:08;7.60;99.90
5334;DHT22;2689;50.954;7.116;2023-12-20T10:02:38;7.70;99.90
5334;DHT22;2689;50.954;7.116;2023-12-20T10:05:08;7.70;99.90
5334;DHT22;2689;50.954;7.116;2023-12-20T10:07:35;7.70;99.90
5334;DHT22;2689;50.954;7.116;2023-12-20T10:10:02;7.70;99.90
5334;DHT22;2689;50.954;7.116;2023-12-20T10:12:28;7.70;99.90
5334;DHT22;2689;50.954;7.116;2023-12-20T10:14:56;7.70;99.90
5334;DHT22;2689;50.954;7.116;2023-12-20T10:17:24;7.70;99.90
5334;DHT22;2689;50.954;7.116;2023-12-20T10:19:55;7.80;99.90
5334;DHT22;2689;50.954;7.116;2023-12-20T10:22:22;7.80;99.90
5334;DHT22;2689;50.954;7.116;2023-12-20T10:24:49;7.90;99.90
5334;DHT22;2689;50.954;7.116;2023-12-20T10:27:18;7.80;99.90
5334;DHT22;2689;50.954;7.116;2023-12-20T10:29:46;7.80;99.90
5334;DHT22;2689;50.954;7.116;2023-12-20T10:32:23;7.80;99.90
5334;DHT22;2689;50.954;7.116;2023-12-20T10:34:50;7.90;99.90
5334;DHT22;2689;50.954;7.116;2023-12-20T10:37:18;7.80;99.90
5334;DHT22;2689;50.954;7.116;2023-12-20T10:39:49;7.90;99.90
5334;DHT22;2689;50.954;7.116;2023-12-20T10:42:20;7.90;99.90
5334;DHT22;2689;50.954;7.116;2023-12-20T10:44:47;7.80;99.90
5334;DHT22;2689;50.954;7.116;2023-12-20T10:47:15;7.80;99.90
5334;DHT22;2689;50.954;7.116;2023-12-20T10:49:43;7.90;99.90
5334;DHT22;2689;50.954;7.116;2023-12-20T10:52:12;7.90;99.90
5334;DHT22;2689;50.954;7.116;2023-12-20T10:54:40;7.90;99.90
5334;DHT22;2689;50.954;7.116;2023-12-20T10:57:07;7.90;99.90
5334;DHT22;2689;50.954;7.116;2023-12-20T10:59:37;7.90;99.90
5334;DHT22;2689;50.954;7.116;2023-12-20T11:02:04;8.00;99.90
5334;DHT22;2689;50.954;7.116;2023-12-20T11:04:37;7.90;99.90
5334;DHT22;2689;50.954;7.116;2023-12-20T11:07:15;7.90;99.90
5334;DHT22;2689;50.954;7.116;2023-12-20T11:09:49;7.90;99.90
5334;DHT22;2689;50.954;7.116;2023-12-20T11:12:21;7.90;99.90
5334;DHT22;2689;50.954;7.116;2023-12-20T11:14:53;8.00;99.90
5334;DHT22;2689;50.954;7.116;2023-12-20T11:17:21;8.00;99.90
5334;DHT22;2689;50.954;7.116;2023-12-20T11:20:09;8.00;99.90
5334;DHT22;2689;50.954;7.116;2023-12-20T11:22:38;8.00;99.90
5334;DHT22;2689;50.954;7.116;2023-12-20T11:25:09;8.00;99.90
5334;DHT22;2689;50.954;7.116;2023-12-20T11:27:40;8.00;99.90
5334;DHT22;2689;50.954;7.116;2023-12-20T11:30:08;8.00;99.90
5334;DHT22;2689;50.954;7.116;2023-12-20T11:32:37;8.00;99.90
5334;DHT22;2689;50.954;7.116;2023-12-20T11:35:17;8.00;99.90
5334;DHT22;2689;50.954;7.116;2023-12-20T11:37:45;8.00;99.90
5334;DHT22;2689;50.954;7.116;2023-12-20T11:40:16;8.00;99.90
5334;DHT22;2689;50.954;7.116;2023-12-20T11:42:44;8.00;99.90
5334;DHT22;2689;50.954;7.116;2023-12-20T11:45:14;8.10;99.90
5334;DHT22;2689;50.954;7.116;2023-12-20T11:47:42;8.00;99.90
5334;DHT22;2689;50.954;7.116;2023-12-20T11:50:10;8.10;99.90
5334;DHT22;2689;50.954;7.116;2023-12-20T11:52:39;8.10;99.90
5334;DHT22;2689;50.954;7.116;2023-12-20T11:55:06;8.10;99.90
5334;DHT22;2689;50.954;7.116;2023-12-20T11:57:36;8.10;99.90
5334;DHT22;2689;50.954;7.116;2023-12-20T12:00:03;8.10;99.90
5334;DHT22;2689;50.954;7.116;2023-12-20T12:02:30;8.20;99.90
5334;DHT22;2689;50.954;7.116;2023-12-20T12:04:57;8.10;99.90
5334;DHT22;2689;50.954;7.116;2023-12-20T12:07:24;8.20;99.90
5334;DHT22;2689;50.954;7.116;2023-12-20T12:09:51;8.20;99.90
5334;DHT22;2689;50.954;7.116;2023-12-20T12:12:19;8.20;99.90
5334;DHT22;2689;50.954;7.116;2023-12-20T12:14:48;8.20;99.90
5334;DHT22;2689;50.954;7.116;2023-12-20T12:17:15;8.20;99.90
5334;DHT22;2689;50.954;7.116;2023-12-20T12:19:43;8.20;99.90
5334;DHT22;2689;50.954;7.116;2023-12-20T12:22:11;8.10;99.90
5334;DHT22;2689;50.954;7.116;2023-12-20T12:24:39;8.20;99.90
5334;DHT22;2689;50.954;7.116;2023-12-20T12:27:09;8.20;99.90
5334;DHT22;2689;50.954;7.116;2023-12-20T12:29:36;8.10;99.90
5334;DHT22;2689;50.954;7.116;2023-12-20T12:32:06;8.10;99.90
5334;DHT22;2689;50.954;7.116;2023-12-20T12:34:33;8.10;99.90
5334;DHT22;2689;50.954;7.116;2023-12-20T12:37:01;8.10;99.90
5334;DHT22;2689;50.954;7.116;2023-12-20T12:39:28;8.20;99.90
5334;DHT22;2689;50.954;7.116;2023-12-20T12:41:56;8.20;99.90
5334;DHT22;2689;50.954;7.116;2023-12-20T12:44:23;8.10;99.90
5334;DHT22;2689;50.954;7.116;2023-12-20T12:46:52;8.20;99.90
5334;DHT22;2689;50.954;7.116;2023-12-20T12:49:21;8.20;99.90
5334;DHT22;2689;50.954;7.116;2023-12-20T12:51:48;8.20;99.90
5334;DHT22;2689;50.954;7.116;2023-12-20T12:54:15;8.20;99.90
5334;DHT22;2689;50.954;7.116;2023-12-20T12:56:43;8.20;99.90
5334;DHT22;2689;50.954;7.116;2023-12-20T12:59:13;8.30;99.90
5334;DHT22;2689;50.954;7.116;2023-12-20T13:01:40;8.30;99.90
5334;DHT22;2689;50.954;7.116;2023-12-20T13:04:07;8.30;99.90
5334;DHT22;2689;50.954;7.116;2023-12-20T13:06:37;8.30;99.90
5334;DHT22;2689;50.954;7.116;2023-12-20T13:09:05;8.30;99.90
5334;DHT22;2689;50.954;7.116;2023-12-20T13:11:32;8.30;99.90
5334;DHT22;2689;50.954;7.116;2023-12-20T13:13:58;8.30;99.90
5334;DHT22;2689;50.954;7.116;2023-12-20T13:16:26;8.30;99.90
5334;DHT22;2689;50.954;7.116;2023-12-20T13:18:53;8.30;99.90
5334;DHT22;2689;50.954;7.116;2023-12-20T13:21:20;8.30;99.90
5334;DHT22;2689;50.954;7.116;2023-12-20T13:23:48;8.30;99.90
5334;DHT22;2689;50.954;7.116;2023-12-20T13:26:14;8.40;99.90
5334;DHT22;2689;50.954;7.116;2023-12-20T13:28:41;8.40;99.90
5334;DHT22;2689;50.954;7.116;2023-12-20T13:31:08;8.40;99.90
5334;DHT22;2689;50.954;7.116;2023-12-20T13:33:36;8.50;99.90
5334;DHT22;2689;50.954;7.116;2023-12-20T13:36:04;8.50;99.90
5334;DHT22;2689;50.954;7.116;2023-12-20T13:38:31;8.50;99.90
5334;DHT22;2689;50.954;7.116;2023-12-20T13:40:59;8.50;99.90
5334;DHT22;2689;50.954;7.116;2023-12-20T13:43:26;8.50;99.90
5334;DHT22;2689;50.954;7.116;2023-12-20T13:45:53;8.40;99.90
5334;DHT22;2689;50.954;7.116;2023-12-20T13:48:20;8.40;99.90
5334;DHT22;2689;50.954;7.116;2023-12-20T13:50:47;8.40;99.90
5334;DHT22;2689;50.954;7.116;2023-12-20T13:53:13;8.40;99.90
5334;DHT22;2689;50.954;7.116;2023-12-20T13:55:42;8.40;99.90
5334;DHT22;2689;50.954;7.116;2023-12-20T13:58:11;8.40;99.90
5334;DHT22;2689;50.954;7.116;2023-12-20T14:00:37;8.40;99.90
5334;DHT22;2689;50.954;7.116;2023-12-20T14:03:05;8.40;99.90
5334;DHT22;2689;50.954;7.116;2023-12-20T14:05:31;8.40;99.90
5334;DHT22;2689;50.954;7.116;2023-12-20T14:07:59;8.40;99.90
5334;DHT22;2689;50.954;7.116;2023-12-20T14:10:26;8.40;99.90
5334;DHT22;2689;50.954;7.116;2023-12-20T14:12:53;8.40;99.90
5334;DHT22;2689;50.954;7.116;2023-12-20T14:15:21;8.40;99.90
5334;DHT22;2689;50.954;7.116;2023-12-20T14:17:50;8.40;99.90
5334;DHT22;2689;50.954;7.116;2023-12-20T14:20:18;8.40;99.90
5334;DHT22;2689;50.954;7.116;2023-12-20T14:22:45;8.50;99.90
5334;DHT22;2689;50.954;7.116;2023-12-20T14:25:12;8.50;99.90
5334;DHT22;2689;50.954;7.116;2023-12-20T14:27:39;8.50;99.90
5334;DHT22;2689;50.954;7.116;2023-12-20T14:30:06;8.50;99.90
5334;DHT22;2689;50.954;7.116;2023-12-20T14:32:36;8.50;99.90
5334;DHT22;2689;50.954;7.116;2023-12-20T14:35:05;8.50;99.90
5334;DHT22;2689;50.954;7.116;2023-12-20T14:37:33;8.50;99.90
5334;DHT22;2689;50.954;7.116;2023-12-20T14:40:00;8.50;99.90
5334;DHT22;2689;50.954;7.116;2023-12-20T14:42:28;8.50;99.90
5334;DHT22;2689;50.954;7.116;2023-12-20T14:44:55;8.60;99.90
5334;DHT22;2689;50.954;7.116;2023-12-20T14:47:21;8.60;99.90
5334;DHT22;2689;50.954;7.116;2023-12-20T14:49:51;8.60;99.90
5334;DHT22;2689;50.954;7.116;2023-12-20T14:52:18;8.60;99.90
5334;DHT22;2689;50.954;7.116;2023-12-20T14:54:45;8.60;99.90
5334;DHT22;2689;50.954;7.116;2023-12-20T14:57:12;8.70;99.90
5334;DHT22;2689;50.954;7.116;2023-12-20T14:59:38;8.60;99.90
5334;DHT22;2689;50.954;7.116;2023-12-20T15:02:05;8.60;99.90
5334;DHT22;2689;50.954;7.116;2023-12-20T15:04:32;8.70;99.90
5334;DHT22;2689;50.954;7.116;2023-12-20T15:07:00;8.60;99.90
5334;DHT22;2689;50.954;7.116;2023-12-20T15:09:28;8.70;99.90
5334;DHT22;2689;50.954;7.116;2023-12-20T15:11:55;8.60;99.90
5334;DHT22;2689;50.954;7.116;2023-12-20T15:14:21;8.60;99.90
5334;DHT22;2689;50.954;7.116;2023-12-20T15:16:48;8.60;99.90
5334;DHT22;2689;50.954;7.116;2023-12-20T15:19:15;8.60;99.90
5334;DHT22;2689;50.954;7.116;2023-12-20T15:21:42;8.70;99.90
5334;DHT22;2689;50.954;7.116;2023-12-20T15:24:12;8.70;99.90
5334;DHT22;2689;50.954;7.116;2023-12-20T15:26:41;8.70;99.90
5334;DHT22;2689;50.954;7.116;2023-12-20T15:29:08;8.70;99.90
5334;DHT22;2689;50.954;7.116;2023-12-20T15:31:35;8.70;99.90
5334;DHT22;2689;50.954;7.116;2023-12-20T15:34:02;8.70;99.90
5334;DHT22;2689;50.954;7.116;2023-12-20T15:36:29;8.70;99.90
5334;DHT22;2689;50.954;7.116;2023-12-20T15:38:56;8.70;99.90
5334;DHT22;2689;50.954;7.116;2023-12-20T15:41:25;8.70;99.90
5334;DHT22;2689;50.954;7.116;2023-12-20T15:43:51;8.70;99.90
5334;DHT22;2689;50.954;7.116;2023-12-20T15:46:18;8.70;99.90
5334;DHT22;2689;50.954;7.116;2023-12-20T15:48:45;8.70;99.90
5334;DHT22;2689;50.954;7.116;2023-12-20T15:51:14;8.70;99.90
5334;DHT22;2689;50.954;7.116;2023-12-20T15:53:40;8.60;99.90
5334;DHT22;2689;50.954;7.116;2023-12-20T15:56:07;8.70;99.90
5334;DHT22;2689;50.954;7.116;2023-12-20T15:58:36;8.70;99.90
5334;DHT22;2689;50.954;7.116;2023-12-20T16:01:03;8.70;99.90
5334;DHT22;2689;50.954;7.116;2023-12-20T16:03:33;8.70;99.90
5334;DHT22;2689;50.954;7.116;2023-12-20T16:06:00;8.70;99.90
5334;DHT22;2689;50.954;7.116;2023-12-20T16:08:28;8.70;99.90
5334;DHT22;2689;50.954;7.116;2023-12-20T16:10:55;8.70;99.90
5334;DHT22;2689;50.954;7.116;2023-12-20T16:13:22;8.70;99.90
5334;DHT22;2689;50.954;7.116;2023-12-20T16:15:50;8.70;99.90
5334;DHT22;2689;50.954;7.116;2023-12-20T16:18:19;8.70;99.90
5334;DHT22;2689;50.954;7.116;2023-12-20T16:20:47;8.70;99.90